createdAt,value
2023-04-03T00:04:29.358Z,3.05
2023-04-03T00:09:22.747Z,3.22
2023-04-03T00:14:16.148Z,3.92
2023-04-03T00:19:13.266Z,2.67
2023-04-03T00:24:07.741Z,3.42
2023-04-03T00:29:00.190Z,3.28
2023-04-03T00:33:54.368Z,4.00
2023-04-03T00:38:47.508Z,7.88
2023-04-03T00:43:41.937Z,5.03
2023-04-03T00:48:41.942Z,4.78
2023-04-03T00:53:42.151Z,6.78
2023-04-03T00:58:39.573Z,3.47
2023-04-03T01:03:32.926Z,3.72
2023-04-03T01:08:28.895Z,3.25
2023-04-03T01:13:31.276Z,2.50
2023-04-03T01:18:27.623Z,2.60
2023-04-03T01:23:33.433Z,3.15
2023-04-03T01:28:33.855Z,2.40
2023-04-03T01:33:27.349Z,2.60
2023-04-03T01:38:21.775Z,2.72
2023-04-03T01:43:15.215Z,2.83
2023-04-03T01:48:09.696Z,4.97
2023-04-03T01:53:03.999Z,3.30
2023-04-03T01:57:56.880Z,5.35
2023-04-03T02:02:50.905Z,3.92
2023-04-03T02:07:44.184Z,2.70
2023-04-03T02:12:37.142Z,5.25
2023-04-03T02:17:30.424Z,4.00
2023-04-03T02:22:24.171Z,5.70
2023-04-03T02:27:18.693Z,5.00
2023-04-03T02:32:11.825Z,5.25
2023-04-03T02:37:05.669Z,5.63
2023-04-03T02:41:59.306Z,5.20
2023-04-03T02:46:54.946Z,6.38
2023-04-03T02:51:48.157Z,5.95
2023-04-03T02:56:41.108Z,4.95
2023-04-03T03:01:34.084Z,6.80
2023-04-03T03:06:27.848Z,5.15
2023-04-03T03:11:21.439Z,7.72
2023-04-03T03:16:14.997Z,5.65
2023-04-03T03:21:08.894Z,8.38
2023-04-03T03:26:05.443Z,17.98
2023-04-03T03:31:01.806Z,8.70
2023-04-03T03:35:56.131Z,8.65
2023-04-03T03:40:50.613Z,6.63
2023-04-03T03:45:47.900Z,7.57
2023-04-03T03:50:42.036Z,8.45
2023-04-03T03:55:36.403Z,6.10
2023-04-03T04:00:31.181Z,5.88
2023-04-03T04:05:25.359Z,7.90
2023-04-03T04:10:20.117Z,7.82
2023-04-03T04:15:13.993Z,10.25
2023-04-03T04:20:08.122Z,10.38
2023-04-03T04:25:02.904Z,10.68
2023-04-03T04:29:57.056Z,8.70
2023-04-03T04:34:52.147Z,10.30
2023-04-03T04:39:46.114Z,8.48
2023-04-03T04:44:40.407Z,9.73
2023-04-03T04:49:35.588Z,8.00
2023-04-03T04:54:29.358Z,17.42
2023-04-03T04:59:24.314Z,9.30
2023-04-03T05:04:19.720Z,8.65
2023-04-03T05:09:17.626Z,10.70
2023-04-03T05:14:12.445Z,8.23
2023-04-03T05:19:06.107Z,10.98
2023-04-03T05:24:04.111Z,12.88
2023-04-03T05:28:59.628Z,14.85
2023-04-03T05:33:54.293Z,13.75
2023-04-03T05:38:47.768Z,12.18
2023-04-03T05:43:42.327Z,17.17
2023-04-03T05:48:38.447Z,15.88
2023-04-03T05:53:33.990Z,9.02
2023-04-03T05:58:29.807Z,12.48
2023-04-03T06:03:23.973Z,10.05
2023-04-03T06:08:17.086Z,12.68
2023-04-03T06:13:11.975Z,13.75
2023-04-03T06:18:05.426Z,9.73
2023-04-03T06:22:59.430Z,8.00
2023-04-03T06:27:56.854Z,11.35
2023-04-03T06:32:50.040Z,8.00
2023-04-03T06:37:43.428Z,8.18
2023-04-03T06:42:36.144Z,11.30
2023-04-03T06:47:37.284Z,6.47
2023-04-03T06:52:31.635Z,8.75
2023-04-03T06:57:26.518Z,16.17
2023-04-03T07:02:19.996Z,9.18
2023-04-03T07:07:14.225Z,10.32
2023-04-03T07:12:08.367Z,9.80
2023-04-03T07:17:01.745Z,10.00
2023-04-03T07:21:56.215Z,11.55
2023-04-03T07:26:53.560Z,9.77
2023-04-03T07:31:49.058Z,9.98
2023-04-03T07:36:43.437Z,11.07
2023-04-03T07:41:37.470Z,9.07
2023-04-03T07:46:30.942Z,12.32
2023-04-03T07:51:26.576Z,11.38
2023-04-03T07:56:19.711Z,10.02
2023-04-03T08:01:13.632Z,11.35
2023-04-03T08:06:15.351Z,11.00
2023-04-03T08:11:10.387Z,14.85
2023-04-03T08:16:12.446Z,10.73
2023-04-03T08:21:26.707Z,15.00
2023-04-03T08:26:22.770Z,12.55
2023-04-03T08:31:20.486Z,9.02
2023-04-03T08:41:37.727Z,10.15
2023-04-03T08:47:12.951Z,9.50
2023-04-03T08:52:13.059Z,8.63
2023-04-03T08:57:08.347Z,7.70
2023-04-03T09:02:08.693Z,7.10
2023-04-03T09:07:08.668Z,9.38
2023-04-03T09:12:51.576Z,8.48
2023-04-03T09:18:07.401Z,5.70
2023-04-03T09:23:00.598Z,9.88
2023-04-03T09:27:57.947Z,2.70
2023-04-03T09:32:54.966Z,3.83
2023-04-03T09:38:15.759Z,5.20
2023-04-03T09:43:31.690Z,6.10
2023-04-03T09:49:05.177Z,3.67
2023-04-03T09:54:02.346Z,4.60
2023-04-03T09:59:00.740Z,4.28
2023-04-03T10:04:09.102Z,6.80
2023-04-03T10:09:06.495Z,3.55
2023-04-03T10:14:06.933Z,3.65
2023-04-03T10:19:07.128Z,5.05
2023-04-03T10:24:28.321Z,6.60
2023-04-03T10:29:29.329Z,7.75
2023-04-03T10:34:42.304Z,5.50
2023-04-03T10:39:58.961Z,5.95
2023-04-03T10:45:18.479Z,6.07
2023-04-03T10:50:33.493Z,6.35
2023-04-03T10:55:55.835Z,6.57
2023-04-03T11:00:51.678Z,5.18
2023-04-03T11:05:47.825Z,8.55
2023-04-03T11:10:46.918Z,8.68
2023-04-03T11:15:42.421Z,8.23
2023-04-03T11:20:36.611Z,7.78
2023-04-03T11:25:32.478Z,5.32
2023-04-03T11:30:49.637Z,5.20
2023-04-03T11:35:48.259Z,8.43
2023-04-03T11:40:42.431Z,11.20
2023-04-03T11:45:52.640Z,6.35
2023-04-03T11:51:13.855Z,3.42
2023-04-03T11:56:27.398Z,4.88
2023-04-03T12:01:59.799Z,6.30
2023-04-03T12:07:06.130Z,6.38
2023-04-03T12:12:00.851Z,4.43
2023-04-03T12:17:18.038Z,7.57
2023-04-03T12:22:32.655Z,7.28
2023-04-03T12:27:40.920Z,5.85
2023-04-03T12:33:12.028Z,4.37
2023-04-03T12:38:34.551Z,5.68
2023-04-03T12:44:04.289Z,5.70
2023-04-03T12:49:01.007Z,4.03
2023-04-03T12:54:01.816Z,4.57
2023-04-03T12:58:59.665Z,4.47
2023-04-03T13:04:02.397Z,4.00
2023-04-03T13:08:58.700Z,5.28
2023-04-03T13:14:01.298Z,5.65
2023-04-03T13:18:55.363Z,5.22
2023-04-03T13:23:57.393Z,2.38
2023-04-03T13:28:55.161Z,4.70
2023-04-03T13:33:56.962Z,4.45
2023-04-03T13:39:15.802Z,9.25
2023-04-03T13:44:23.955Z,5.10
2023-04-03T13:49:30.296Z,4.45
2023-04-03T13:54:35.713Z,4.32
2023-04-03T13:59:31.856Z,5.65
2023-04-03T14:04:29.670Z,2.40
2023-04-03T14:09:24.408Z,2.63
2023-04-03T14:14:31.801Z,4.28
2023-04-03T14:19:28.503Z,2.10
2023-04-03T14:24:23.028Z,3.40
2023-04-03T14:29:16.136Z,1.52
2023-04-03T14:34:10.586Z,7.97
2023-04-03T14:39:05.388Z,3.60
2023-04-03T14:43:59.286Z,5.60
2023-04-03T14:48:52.303Z,7.07
2023-04-03T14:53:46.355Z,4.35
2023-04-03T14:58:39.465Z,7.32
2023-04-03T15:03:33.394Z,2.15
2023-04-03T15:08:28.569Z,3.00
2023-04-03T15:13:21.615Z,4.13
2023-04-03T15:18:19.186Z,1.33
2023-04-03T15:23:13.948Z,3.63
2023-04-03T15:28:08.248Z,2.25
2023-04-03T15:33:02.619Z,2.70
2023-04-03T15:37:56.282Z,2.97
2023-04-03T15:42:48.841Z,2.33
2023-04-03T15:47:42.134Z,4.50
2023-04-03T15:52:36.225Z,5.43
2023-04-03T16:02:23.199Z,3.67
2023-04-03T16:07:17.560Z,4.28
2023-04-03T16:12:10.968Z,7.10
2023-04-03T16:17:03.869Z,1.83
2023-04-03T16:21:57.538Z,1.85
2023-04-03T16:26:50.839Z,1.77
2023-04-03T16:31:44.062Z,4.25
2023-04-03T16:36:38.558Z,4.45
2023-04-03T16:41:32.638Z,4.18
2023-04-03T16:46:25.849Z,2.70
2023-04-03T16:51:19.351Z,9.00
2023-04-03T16:56:11.983Z,8.02
2023-04-03T17:01:18.511Z,6.93
2023-04-03T17:06:16.955Z,13.60
2023-04-03T17:11:12.135Z,7.20
2023-04-03T17:16:09.503Z,5.50
2023-04-03T17:21:03.470Z,7.93
2023-04-03T17:25:56.742Z,9.10
2023-04-03T17:30:49.858Z,4.30
2023-04-03T17:35:43.789Z,3.55
2023-04-03T17:40:37.363Z,5.20
2023-04-03T17:45:31.573Z,6.88
2023-04-03T17:50:24.740Z,5.95
2023-04-03T17:55:22.469Z,3.97
2023-04-03T18:00:16.484Z,6.13
2023-04-03T18:05:10.609Z,5.15
2023-04-03T18:10:05.512Z,11.40
2023-04-03T18:15:00.382Z,5.57
2023-04-03T18:19:52.954Z,9.02
2023-04-03T18:24:47.781Z,10.63
2023-04-03T18:29:43.301Z,8.35
2023-04-03T18:34:36.392Z,11.10
2023-04-03T18:39:30.283Z,12.07
2023-04-03T18:44:25.864Z,9.93
2023-04-03T18:49:19.064Z,11.05
2023-04-03T18:54:13.259Z,11.38
2023-04-03T18:59:07.422Z,14.73
2023-04-03T19:04:01.225Z,12.38
2023-04-03T19:08:54.510Z,6.72
2023-04-03T19:14:04.420Z,10.77
2023-04-03T19:19:01.634Z,6.00
2023-04-03T19:23:55.754Z,4.72
2023-04-03T19:28:51.386Z,5.15
2023-04-03T19:33:45.306Z,5.82
2023-04-03T19:38:39.833Z,4.25
2023-04-03T19:43:33.860Z,10.45
2023-04-03T19:48:27.608Z,5.57
2023-04-03T19:53:22.287Z,3.60
2023-04-03T19:58:16.146Z,6.47
2023-04-03T20:03:09.655Z,4.90
2023-04-03T20:08:02.580Z,7.20
2023-04-03T20:12:55.864Z,3.30
2023-04-03T20:17:49.120Z,7.28
2023-04-03T20:22:42.387Z,7.15
2023-04-03T20:27:35.351Z,5.38
2023-04-03T20:32:28.705Z,8.55
2023-04-03T20:37:23.382Z,9.60
2023-04-03T20:42:16.158Z,5.68
2023-04-03T20:47:10.917Z,8.00
2023-04-03T20:52:06.210Z,14.20
2023-04-03T20:57:02.460Z,11.70
2023-04-03T21:01:56.937Z,7.57
2023-04-03T21:07:28.042Z,7.43
2023-04-03T21:12:58.479Z,9.13
2023-04-03T21:18:09.605Z,8.32
2023-04-03T21:23:02.340Z,7.05
2023-04-03T21:27:55.620Z,9.13
2023-04-03T21:32:48.525Z,8.02
2023-04-03T21:37:41.801Z,8.68
2023-04-03T21:42:34.909Z,9.60
2023-04-03T21:47:29.052Z,11.27
2023-04-03T21:52:22.862Z,9.57
2023-04-03T21:57:16.709Z,9.98
2023-04-03T22:02:09.863Z,9.35
2023-04-03T22:07:05.417Z,8.63
2023-04-03T22:11:59.067Z,11.27
2023-04-03T22:16:53.609Z,10.25
2023-04-03T22:21:48.070Z,7.35
2023-04-03T22:26:44.717Z,9.98
2023-04-03T22:31:37.519Z,8.10
2023-04-03T22:36:30.817Z,16.42
2023-04-03T22:41:24.528Z,9.38
2023-04-03T22:46:17.086Z,18.00
2023-04-03T22:51:10.864Z,12.10
2023-04-03T22:56:11.566Z,8.32
2023-04-03T23:01:10.583Z,8.90
2023-04-03T23:06:05.959Z,12.50
2023-04-03T23:10:59.481Z,13.48
2023-04-03T23:15:58.907Z,13.32
2023-04-03T23:20:52.409Z,16.33
2023-04-03T23:25:45.254Z,8.40
2023-04-03T23:30:39.059Z,9.57
2023-04-03T23:35:32.365Z,11.95
2023-04-03T23:40:24.800Z,10.38
2023-04-03T23:45:18.231Z,7.18
2023-04-03T23:50:11.779Z,5.47
2023-04-03T23:55:06.938Z,10.60
